East Franklin, Vermont
Current Conditions -  °F | °C
As of 6:35 PM on Saturday 22 Nov 2014 (Local Time) from KFSO Reporting Station
Light Snow Light Snow  
Wind Chill: -4°   Ceiling: 3300
Heat Index:   Visibility: 3mi
Dew Point: -3°   Wind: 7mph
Humidity: 82%   Direction: 170°S
Pressure: 29.94"   Gusts: NA
Location:  44.9656°N, 72.8975°W
Report Text: KFSO 222335Z AUTO 17006KT 3SM -SN SCT016 OVC033 00/M03 A2994 RMK AO2 T10031030
Loading
Personal Weather Stations






























Interactive Weather Map New forecast layout! Learn more

10-Day Weather Forecast

Advertisements
Track Severe Weather on mobile